createdAt,value
2023-03-11T00:00:16.930Z,96606.00
2023-03-11T00:03:23.060Z,96618.09
2023-03-11T00:06:28.415Z,96627.53
2023-03-11T00:09:31.621Z,96637.00
2023-03-11T00:12:34.787Z,96620.00
2023-03-11T00:15:39.087Z,96637.13
2023-03-11T00:18:42.272Z,96644.97
2023-03-11T00:21:46.822Z,96643.91
2023-03-11T00:24:49.935Z,96656.09
2023-03-11T00:27:53.420Z,96663.00
2023-03-11T00:30:56.548Z,96650.22
2023-03-11T00:33:59.734Z,96664.84
2023-03-11T00:37:04.411Z,96653.00
2023-03-11T00:40:10.642Z,96667.44
2023-03-11T00:43:14.004Z,96683.75
2023-03-11T00:46:17.785Z,96690.63
2023-03-11T00:49:21.079Z,96707.84
2023-03-11T00:52:25.823Z,96708.75
2023-03-11T00:55:31.555Z,96712.84
2023-03-11T00:58:36.654Z,96714.16
2023-03-11T01:01:40.281Z,96716.91
2023-03-11T01:04:43.625Z,96727.88
2023-03-11T01:07:49.734Z,96729.00
2023-03-11T01:10:52.830Z,96735.41
2023-03-11T01:13:56.264Z,96748.34
2023-03-11T01:16:59.626Z,96745.84
2023-03-11T01:20:05.195Z,96760.38
2023-03-11T01:23:11.810Z,96741.63
2023-03-11T01:26:15.525Z,96757.78
2023-03-11T01:29:18.720Z,96758.50
2023-03-11T01:32:21.823Z,96773.19
2023-03-11T01:35:27.119Z,96775.66
2023-03-11T01:38:31.646Z,96781.00
2023-03-11T01:41:35.027Z,96779.31
2023-03-11T01:44:39.269Z,96751.00
2023-03-11T01:47:42.479Z,96779.56
2023-03-11T01:50:51.509Z,96779.69
2023-03-11T01:53:57.721Z,96792.38
2023-03-11T01:57:06.177Z,96794.31
2023-03-11T02:00:15.564Z,96793.31
2023-03-11T02:03:22.933Z,96790.94
2023-03-11T02:06:29.062Z,96790.22
2023-03-11T02:09:34.119Z,96806.34
2023-03-11T02:12:38.718Z,96802.22
2023-03-11T02:15:42.581Z,96765.22
2023-03-11T02:18:45.851Z,96799.94
2023-03-11T02:21:49.807Z,96794.84
2023-03-11T02:25:04.018Z,96793.88
2023-03-11T02:28:13.072Z,96792.16
2023-03-11T02:31:17.059Z,96794.13
2023-03-11T02:34:25.374Z,96785.63
2023-03-11T02:37:28.911Z,96784.75
2023-03-11T02:40:45.021Z,96774.69
2023-03-11T02:43:50.133Z,96791.66
2023-03-11T02:46:54.556Z,96796.88
2023-03-11T02:49:59.056Z,96799.41
2023-03-11T02:53:02.330Z,96806.03
2023-03-11T02:56:06.075Z,96821.31
2023-03-11T02:59:12.079Z,96823.31
2023-03-11T03:02:15.522Z,96819.16
2023-03-11T03:05:20.504Z,96837.75
2023-03-11T03:08:24.295Z,96839.47
2023-03-11T03:11:27.503Z,96842.03
2023-03-11T03:14:32.531Z,96854.16
2023-03-11T03:17:36.023Z,96854.94
2023-03-11T03:20:41.100Z,96857.53
2023-03-11T03:23:44.379Z,96855.03
2023-03-11T03:26:48.141Z,96852.50
2023-03-11T03:29:52.793Z,96864.53
2023-03-11T03:32:56.627Z,96861.94
2023-03-11T03:36:00.158Z,96848.44
2023-03-11T03:39:07.638Z,96862.88
2023-03-11T03:42:13.304Z,96874.97
2023-03-11T03:45:19.472Z,96878.25
2023-03-11T03:48:23.570Z,96870.78
2023-03-11T03:51:27.051Z,96881.69
2023-03-11T03:54:38.734Z,96881.50
2023-03-11T03:57:42.114Z,96882.63
2023-03-11T04:00:49.971Z,96872.75
2023-03-11T04:03:53.399Z,96894.81
2023-03-11T04:06:57.697Z,96899.63
2023-03-11T04:10:00.919Z,96903.88
2023-03-11T04:13:05.764Z,96917.50
2023-03-11T04:16:16.681Z,96912.63
2023-03-11T04:19:20.024Z,96912.41
2023-03-11T04:22:23.511Z,96916.06
2023-03-11T04:25:26.807Z,96920.19
2023-03-11T04:28:30.430Z,96920.38
2023-03-11T04:34:21.075Z,96930.53
2023-03-11T04:37:28.267Z,96934.91
2023-03-11T04:40:32.022Z,96933.25
2023-03-11T04:43:35.544Z,96932.22
2023-03-11T04:46:38.889Z,96942.69
2023-03-11T04:49:45.647Z,96926.63
2023-03-11T04:52:49.633Z,96924.94
2023-03-11T04:55:53.800Z,96936.81
2023-03-11T04:58:57.114Z,96938.56
2023-03-11T05:02:02.101Z,96936.81
2023-03-11T05:05:10.157Z,96920.22
2023-03-11T05:08:14.464Z,96944.44
2023-03-11T05:11:18.135Z,96947.00
2023-03-11T05:14:23.418Z,96955.53
2023-03-11T05:17:27.771Z,96970.59
2023-03-11T05:20:33.355Z,96976.34
2023-03-11T05:23:36.636Z,96979.44
2023-03-11T05:26:40.084Z,96982.66
2023-03-11T05:29:43.732Z,96978.53
2023-03-11T05:32:49.006Z,96968.56
2023-03-11T05:35:54.981Z,96979.69
2023-03-11T05:38:58.607Z,96973.81
2023-03-11T05:42:01.934Z,96991.25
2023-03-11T05:45:05.791Z,96996.50
2023-03-11T05:48:10.517Z,97000.25
2023-03-11T05:51:16.294Z,97005.63
2023-03-11T05:54:21.995Z,97009.06
2023-03-11T05:57:28.275Z,97014.78
2023-03-11T06:00:32.529Z,97017.34
2023-03-11T06:03:38.821Z,97021.63
2023-03-11T06:06:43.512Z,97022.50
2023-03-11T06:09:50.978Z,97022.38
2023-03-11T06:12:55.395Z,97023.38
2023-03-11T06:16:09.461Z,97033.56
2023-03-11T06:19:13.644Z,97033.41
2023-03-11T06:22:23.035Z,97046.97
2023-03-11T06:25:26.318Z,97062.31
2023-03-11T06:28:31.191Z,97046.97
2023-03-11T06:31:34.526Z,97057.34
2023-03-11T06:34:43.983Z,97060.31
2023-03-11T06:37:48.759Z,97061.78
2023-03-11T06:40:52.091Z,97068.09
2023-03-11T06:43:55.341Z,97079.44
2023-03-11T06:46:58.663Z,97084.13
2023-03-11T06:50:06.445Z,97084.97
2023-03-11T06:53:11.687Z,97091.91
2023-03-11T06:56:15.100Z,97078.47
2023-03-11T06:59:23.802Z,97093.41
2023-03-11T07:02:27.168Z,97099.53
2023-03-11T07:05:30.885Z,97118.94
2023-03-11T07:08:40.530Z,97108.00
2023-03-11T07:11:44.636Z,97112.25
2023-03-11T07:14:55.926Z,97113.25
2023-03-11T07:17:59.462Z,97123.16
2023-03-11T07:21:04.615Z,97123.84
2023-03-11T07:24:09.339Z,97133.09
2023-03-11T07:27:12.565Z,97121.25
2023-03-11T07:30:16.054Z,97130.75
2023-03-11T07:33:19.721Z,97135.22
2023-03-11T07:36:28.357Z,97141.53
2023-03-11T07:39:32.927Z,97145.22
2023-03-11T07:42:36.461Z,97156.25
2023-03-11T07:45:39.618Z,97166.63
2023-03-11T07:48:43.371Z,97166.25
2023-03-11T07:51:46.713Z,97168.00
2023-03-11T07:54:51.399Z,97166.97
2023-03-11T07:57:54.567Z,97177.00
2023-03-11T08:00:57.941Z,97187.56
2023-03-11T08:04:01.105Z,97194.84
2023-03-11T08:07:04.300Z,97201.09
2023-03-11T08:10:10.810Z,97160.34
2023-03-11T08:13:14.013Z,97194.91
2023-03-11T08:16:20.010Z,97195.56
2023-03-11T08:19:23.222Z,97199.53
2023-03-11T08:22:26.533Z,97219.41
2023-03-11T08:25:31.425Z,97210.38
2023-03-11T08:28:35.018Z,97223.13
2023-03-11T08:31:38.404Z,97226.03
2023-03-11T08:34:41.623Z,97226.13
2023-03-11T08:37:44.928Z,97238.19
2023-03-11T08:40:49.845Z,97238.66
2023-03-11T08:43:53.193Z,97242.84
2023-03-11T08:46:56.522Z,97250.25
2023-03-11T08:49:59.724Z,97243.19
2023-03-11T08:53:03.243Z,97250.31
2023-03-11T08:56:08.436Z,97248.06
2023-03-11T08:59:11.709Z,97248.03
2023-03-11T09:02:14.912Z,97245.50
2023-03-11T09:05:18.812Z,97253.97
2023-03-11T09:08:21.924Z,97251.84
2023-03-11T09:11:26.921Z,97266.16
2023-03-11T09:14:30.042Z,97251.06
2023-03-11T09:17:33.212Z,97259.28
2023-03-11T09:20:38.772Z,97256.53
2023-03-11T09:23:44.368Z,97261.69
2023-03-11T09:26:49.283Z,97264.94
2023-03-11T09:29:52.519Z,97274.78
2023-03-11T09:32:55.724Z,97259.06
2023-03-11T09:35:59.118Z,97281.06
2023-03-11T09:39:02.996Z,97276.59
2023-03-11T09:42:18.027Z,97271.59
2023-03-11T09:45:25.764Z,97274.44
2023-03-11T09:48:38.274Z,97272.94
2023-03-11T09:51:47.136Z,97278.72
2023-03-11T09:54:54.103Z,97258.56
2023-03-11T09:58:01.144Z,97280.13
2023-03-11T10:01:11.389Z,97279.00
2023-03-11T10:04:20.187Z,97296.25
2023-03-11T10:07:29.687Z,97230.19
2023-03-11T10:10:40.554Z,97334.88
2023-03-11T10:13:51.496Z,97321.63
2023-03-11T10:17:02.098Z,97311.41
2023-03-11T10:20:12.863Z,97326.22
2023-03-11T10:23:26.105Z,97316.63
2023-03-11T10:26:33.583Z,97311.31
2023-03-11T10:29:49.279Z,97315.63
2023-03-11T10:34:27.168Z,97312.47
2023-03-11T10:37:48.255Z,97308.47
2023-03-11T10:40:57.185Z,97314.78
2023-03-11T10:44:05.051Z,97308.25
2023-03-11T10:47:17.711Z,97321.97
2023-03-11T10:50:22.197Z,97312.44
2023-03-11T10:53:25.486Z,97316.88
2023-03-11T10:56:32.808Z,97318.72
2023-03-11T10:59:48.515Z,97322.81
2023-03-11T11:02:57.130Z,97319.63
2023-03-11T11:06:04.937Z,97314.75
2023-03-11T11:09:16.723Z,97314.94
2023-03-11T11:12:22.266Z,97316.22
2023-03-11T11:15:27.825Z,97315.69
2023-03-11T11:18:34.969Z,97316.00
2023-03-11T11:21:43.209Z,97319.91
2023-03-11T11:24:48.011Z,97320.44
2023-03-11T11:27:56.030Z,97316.38
2023-03-11T11:31:01.343Z,97320.59
2023-03-11T11:34:07.074Z,97325.28
2023-03-11T11:37:14.402Z,97320.47
2023-03-11T11:40:27.353Z,97326.56
2023-03-11T11:43:42.475Z,97334.41
2023-03-11T11:46:51.187Z,97319.31
2023-03-11T11:49:58.460Z,97322.22
2023-03-11T11:53:13.345Z,97322.22
2023-03-11T11:56:16.498Z,97313.41
2023-03-11T11:59:22.998Z,97310.72
2023-03-11T12:02:46.536Z,97322.19
2023-03-11T12:05:57.880Z,97311.72
2023-03-11T12:09:15.572Z,97294.00
2023-03-11T12:12:26.570Z,97316.41
2023-03-11T12:15:35.288Z,97316.50
2023-03-11T12:18:43.932Z,97315.72
2023-03-11T12:22:04.102Z,97313.59
2023-03-11T12:25:22.090Z,97320.13
2023-03-11T12:28:37.866Z,97311.78
2023-03-11T12:31:42.416Z,97324.31
2023-03-11T12:34:47.925Z,97325.19
2023-03-11T12:38:08.846Z,97324.94
2023-03-11T12:41:30.835Z,97329.13
2023-03-11T12:44:34.117Z,97328.44
2023-03-11T12:47:37.401Z,97322.91
2023-03-11T12:50:43.554Z,97330.09
2023-03-11T12:53:48.658Z,97327.16
2023-03-11T12:56:57.401Z,97333.69
2023-03-11T13:00:23.052Z,97332.56
2023-03-11T13:03:46.122Z,97333.84
2023-03-11T13:07:27.944Z,97327.16
2023-03-11T13:10:40.434Z,97342.59
2023-03-11T13:13:45.078Z,97332.44
2023-03-11T13:16:48.721Z,97336.16
2023-03-11T13:19:54.696Z,97337.53
2023-03-11T13:23:23.533Z,97351.28
2023-03-11T13:26:41.690Z,97358.19
2023-03-11T13:29:57.170Z,97354.03
2023-03-11T13:33:19.475Z,97364.03
2023-03-11T13:36:37.450Z,97362.16
2023-03-11T13:39:52.872Z,97370.72
2023-03-11T13:43:03.787Z,97373.69
2023-03-11T13:46:15.552Z,97378.69
2023-03-11T13:49:32.422Z,97386.94
2023-03-11T13:52:37.703Z,97390.16
2023-03-11T13:55:47.286Z,97357.31
2023-03-11T13:58:50.405Z,97382.06
2023-03-11T14:01:57.936Z,97389.13
2023-03-11T14:05:06.939Z,97389.13
2023-03-11T14:08:19.175Z,97393.63
2023-03-11T14:11:27.122Z,97393.69
2023-03-11T14:14:44.100Z,97398.59
2023-03-11T14:17:48.948Z,97391.19
2023-03-11T14:20:52.744Z,97401.34
2023-03-11T14:23:57.092Z,97398.56
2023-03-11T14:27:04.969Z,97404.16
2023-03-11T14:30:09.315Z,97395.78
2023-03-11T14:33:22.783Z,97388.94
2023-03-11T14:36:28.254Z,97393.28
2023-03-11T14:39:32.787Z,97382.16
2023-03-11T14:42:39.264Z,97386.25
2023-03-11T14:45:44.885Z,97396.25
2023-03-11T14:48:50.123Z,97394.75
2023-03-11T14:51:59.552Z,97414.88
2023-03-11T14:55:05.599Z,97400.38
2023-03-11T14:58:17.322Z,97415.91
2023-03-11T15:01:26.001Z,97409.50
2023-03-11T15:04:34.306Z,97413.19
2023-03-11T15:07:38.903Z,97417.28
2023-03-11T15:11:03.356Z,97427.75
2023-03-11T15:14:21.834Z,97426.44
2023-03-11T15:17:37.422Z,97427.59
2023-03-11T15:20:47.875Z,97429.03
2023-03-11T15:23:53.579Z,97443.41
2023-03-11T15:26:58.768Z,97441.88
2023-03-11T15:30:03.760Z,97430.75
2023-03-11T15:33:21.916Z,97429.09
2023-03-11T15:36:34.677Z,97429.47
2023-03-11T15:39:46.824Z,97435.31
2023-03-11T15:43:20.241Z,97428.28
2023-03-11T15:46:23.426Z,97431.59
2023-03-11T15:49:26.911Z,97438.38
2023-03-11T15:52:31.415Z,97440.38
2023-03-11T15:55:34.546Z,97447.38
2023-03-11T15:58:39.005Z,97451.84
2023-03-11T16:01:42.240Z,97451.44
2023-03-11T16:04:45.541Z,97460.03
2023-03-11T16:07:50.630Z,97465.44
2023-03-11T16:10:53.866Z,97459.94
2023-03-11T16:13:56.938Z,97462.66
2023-03-11T16:17:00.452Z,97470.97
2023-03-11T16:20:03.698Z,97469.38
2023-03-11T16:23:12.368Z,97460.66
2023-03-11T16:26:17.167Z,97457.19
2023-03-11T16:29:23.118Z,97454.63
2023-03-11T16:34:21.809Z,97463.94
2023-03-11T16:37:25.016Z,97466.91
2023-03-11T16:40:29.320Z,97462.91
2023-03-11T16:43:32.922Z,97460.66
2023-03-11T16:46:36.107Z,97466.84
2023-03-11T16:49:40.798Z,97481.34
2023-03-11T16:52:43.972Z,97478.88
2023-03-11T16:55:48.095Z,97490.56
2023-03-11T16:58:51.441Z,97488.09
2023-03-11T17:01:54.730Z,97495.75
2023-03-11T17:04:59.636Z,97490.00
2023-03-11T17:08:04.363Z,97501.13
2023-03-11T17:11:14.665Z,97503.00
2023-03-11T17:14:17.858Z,97505.69
2023-03-11T17:17:21.761Z,97520.88
2023-03-11T17:20:26.237Z,97521.75
2023-03-11T17:23:29.397Z,97528.94
2023-03-11T17:26:32.669Z,97542.38
2023-03-11T17:29:35.868Z,97556.06
2023-03-11T17:32:39.466Z,97546.72
2023-03-11T17:35:44.033Z,97548.72
2023-03-11T17:38:48.563Z,97546.88
2023-03-11T17:41:51.997Z,97555.38
2023-03-11T17:44:56.761Z,97552.78
2023-03-11T17:47:59.864Z,97550.03
2023-03-11T17:51:10.132Z,97568.91
2023-03-11T17:54:13.269Z,97563.50
2023-03-11T17:57:16.398Z,97568.97
2023-03-11T18:00:20.426Z,97577.44
2023-03-11T18:03:23.971Z,97585.22
2023-03-11T18:06:29.852Z,97588.47
2023-03-11T18:09:33.012Z,97583.50
2023-03-11T18:12:36.215Z,97591.97
2023-03-11T18:15:39.421Z,97599.69
2023-03-11T18:18:43.500Z,97597.97
2023-03-11T18:21:48.046Z,97597.94
2023-03-11T18:24:51.185Z,97598.06
2023-03-11T18:27:54.305Z,97602.91
2023-03-11T18:30:59.111Z,97602.34
2023-03-11T18:34:04.469Z,97600.00
2023-03-11T18:37:08.967Z,97595.00
2023-03-11T18:40:13.602Z,97605.38
2023-03-11T18:43:16.776Z,97600.44
2023-03-11T18:46:20.240Z,97597.63
2023-03-11T18:49:23.577Z,97608.06
2023-03-11T18:52:28.116Z,97619.78
2023-03-11T18:55:31.476Z,97624.25
2023-03-11T18:58:35.098Z,97624.41
2023-03-11T19:01:38.367Z,97615.16
2023-03-11T19:04:41.749Z,97625.47
2023-03-11T19:07:46.332Z,97613.72
2023-03-11T19:10:49.544Z,97619.91
2023-03-11T19:13:52.828Z,97625.78
2023-03-11T19:16:56.037Z,97621.72
2023-03-11T19:19:59.203Z,97619.28
2023-03-11T19:23:05.071Z,97618.66
2023-03-11T19:26:08.320Z,97630.47
2023-03-11T19:29:11.486Z,97552.16
2023-03-11T19:32:14.639Z,97623.75
2023-03-11T19:35:18.022Z,97627.31
2023-03-11T19:38:23.640Z,97626.56
2023-03-11T19:41:26.787Z,97632.44
2023-03-11T19:44:29.952Z,97625.84
2023-03-11T19:47:33.085Z,97629.31
2023-03-11T19:50:36.304Z,97632.75
2023-03-11T19:53:41.682Z,97627.75
2023-03-11T19:56:45.073Z,97632.91
2023-03-11T19:59:48.241Z,97637.00
2023-03-11T20:02:51.720Z,97649.84
2023-03-11T20:05:57.798Z,97636.28
2023-03-11T20:09:02.688Z,97642.22
2023-03-11T20:12:06.823Z,97651.56
2023-03-11T20:15:11.315Z,97660.00
2023-03-11T20:18:14.510Z,97654.16
2023-03-11T20:21:17.775Z,97652.50
2023-03-11T20:24:22.536Z,97672.81
2023-03-11T20:27:25.708Z,97685.59
2023-03-11T20:30:29.544Z,97680.44
2023-03-11T20:33:33.804Z,97683.91
2023-03-11T20:36:37.069Z,97679.63
2023-03-11T20:39:41.728Z,97680.50
2023-03-11T20:42:47.023Z,97667.72
2023-03-11T20:45:50.920Z,97681.38
2023-03-11T20:48:54.072Z,97692.38
2023-03-11T20:51:57.536Z,97681.22
2023-03-11T20:55:02.343Z,97676.19
2023-03-11T20:58:05.683Z,97687.31
2023-03-11T21:01:13.725Z,97682.94
2023-03-11T21:04:17.247Z,97685.56
2023-03-11T21:07:20.850Z,97679.81
2023-03-11T21:10:25.373Z,97685.72
2023-03-11T21:13:28.859Z,97686.53
2023-03-11T21:16:32.316Z,97693.38
2023-03-11T21:19:35.595Z,97693.38
2023-03-11T21:22:38.762Z,97693.38
2023-03-11T21:25:43.559Z,97698.53
2023-03-11T21:28:47.321Z,97701.88
2023-03-11T21:31:51.307Z,97690.94
2023-03-11T21:34:57.157Z,97678.25
2023-03-11T21:38:00.440Z,97709.56
2023-03-11T21:41:10.177Z,97715.50
2023-03-11T21:44:13.310Z,97713.00
2023-03-11T21:47:16.593Z,97719.78
2023-03-11T21:50:19.995Z,97726.53
2023-03-11T21:53:23.186Z,97715.53
2023-03-11T21:56:28.437Z,97713.91
2023-03-11T21:59:31.727Z,97714.50
2023-03-11T22:02:34.872Z,97713.69
2023-03-11T22:05:38.471Z,97707.09
2023-03-11T22:08:42.419Z,97703.75
2023-03-11T22:11:47.269Z,97708.00
2023-03-11T22:14:51.215Z,97702.06
2023-03-11T22:17:54.515Z,97717.31
2023-03-11T22:20:58.686Z,97721.56
2023-03-11T22:24:01.884Z,97719.84
2023-03-11T22:27:06.381Z,97721.56
2023-03-11T22:30:10.720Z,97733.41
2023-03-11T22:34:20.509Z,97734.25
2023-03-11T22:37:23.651Z,97742.69
2023-03-11T22:40:27.313Z,97746.94
2023-03-11T22:43:30.453Z,97746.09
2023-03-11T22:46:33.699Z,97739.31
2023-03-11T22:49:38.257Z,97733.34
2023-03-11T22:52:41.441Z,97741.84
2023-03-11T22:55:45.478Z,97729.19
2023-03-11T22:58:48.961Z,97741.00
2023-03-11T23:01:52.579Z,97741.84
2023-03-11T23:04:57.070Z,97755.34
2023-03-11T23:08:00.426Z,97747.78
2023-03-11T23:11:04.966Z,97751.13
2023-03-11T23:14:08.217Z,97753.69
2023-03-11T23:17:12.493Z,97757.88
2023-03-11T23:20:18.078Z,97757.84
2023-03-11T23:23:21.358Z,97757.88
2023-03-11T23:26:25.073Z,97759.56
2023-03-11T23:29:28.309Z,97763.84
2023-03-11T23:32:31.528Z,97758.75
2023-03-11T23:35:41.326Z,97756.19
2023-03-11T23:38:45.192Z,97740.97
2023-03-11T23:41:48.350Z,97754.47
2023-03-11T23:44:51.711Z,97760.38
2023-03-11T23:47:54.978Z,97766.31
2023-03-11T23:50:59.519Z,97761.25
2023-03-11T23:54:02.726Z,97767.16
2023-03-11T23:57:06.149Z,97767.16
